Osage River (Missouri), Saint Thomas (06926510)

StateMissouriCurrentPotential (10200 cfs)
RiverOsage RiverFlood - The river is flooding. Obstacles can be treacherous or deadly. The river should be avoided at this stage for casual trips and definitely for the inexperienced. Trips should be attempted only with protective gear and equipment.Flood(none)
Updated2019-10-14 3:45 (13 minutes ago)High - The river is high and potentially dangerous, especially for the young and / or inexperienced. Normal stream obstacles are sometimes difficult to navigate. Extended distances can be attempted, but canoe travel may not be advisable.High(none)
Discharge10200 cfs (median: 1800 cfs)Good - Conditions are ideal for a canoe or kayak. Boats typically will drag on fewer than one-quarter of riffles, if at all, and portages are unnecessary or rare. Normal float lengths can be attempted without a problem.Good(none)
Height6.18 feetLow - River is low but can still be floated. Some riffles are okay but most come with significant dragging and might need a portage. Float lengths should be reduced to accommodate low flow, dragging, and portages.Low(none)
TrendRising (falling over 24 hours)Poor - River is too low to float comfortably. Most or all riffles will drag or must be portaged and some obstacles (such as slick shelf rock) cause undue problems. Avoid the river at this stage for casual paddling trips.Poor(none)
USGSExternal icon USGS Site for Saint Thomas (06926510)LocationExternal icon Google Maps

Trending Data

Plot Image
ObservationHeightDischargeMaximum
Discharge
Minimum
Discharge
Mean
Discharge
P05P10P20P25P50
(Median)
P75P80P90P95
2019-10-14 03:45 6.18 10200 31900 (1999) 511 (2003) 6470 512 582 1190 1250 1800 7790 10200 28600 31900
2019-10-14 02:45 6.06 9840 31900 (1999) 511 (2003) 6470 512 582 1190 1250 1800 7790 10200 28600 31900
2019-10-14 01:45 5.99 9650 31900 (1999) 511 (2003) 6470 512 582 1190 1250 1800 7790 10200 28600 31900
2019-10-14 00:45 5.96 9570 31900 (1999) 511 (2003) 6470 512 582 1190 1250 1800 7790 10200 28600 31900
2019-10-13 23:45 5.95 9540 32000 (1999) 519 (2003) 5910 522 609 1210 1250 2140 3660 8830 26100 31600
2019-10-13 22:45 5.97 9600 32000 (1999) 519 (2003) 5910 522 609 1210 1250 2140 3660 8830 26100 31600
2019-10-13 21:45 6.01 9710 32000 (1999) 519 (2003) 5910 522 609 1210 1250 2140 3660 8830 26100 31600
2019-10-13 20:45 6.07 9870 32000 (1999) 519 (2003) 5910 522 609 1210 1250 2140 3660 8830 26100 31600
2019-10-13 19:45 6.14 10100 32000 (1999) 519 (2003) 5910 522 609 1210 1250 2140 3660 8830 26100 31600
2019-10-13 18:45 6.22 10300 32000 (1999) 519 (2003) 5910 522 609 1210 1250 2140 3660 8830 26100 31600
2019-10-13 17:45 6.31 10500 32000 (1999) 519 (2003) 5910 522 609 1210 1250 2140 3660 8830 26100 31600
2019-10-13 16:45 6.39 10800 32000 (1999) 519 (2003) 5910 522 609 1210 1250 2140 3660 8830 26100 31600
2019-10-13 15:45 6.51 11100 32000 (1999) 519 (2003) 5910 522 609 1210 1250 2140 3660 8830 26100 31600
2019-10-13 14:45 6.61 11400 32000 (1999) 519 (2003) 5910 522 609 1210 1250 2140 3660 8830 26100 31600
2019-10-13 13:45 6.72 11800 32000 (1999) 519 (2003) 5910 522 609 1210 1250 2140 3660 8830 26100 31600
2019-10-13 12:45 6.84 12100 32000 (1999) 519 (2003) 5910 522 609 1210 1250 2140 3660 8830 26100 31600
2019-10-13 11:45 6.96 12500 32000 (1999) 519 (2003) 5910 522 609 1210 1250 2140 3660 8830 26100 31600
2019-10-13 10:45 7.08 12900 32000 (1999) 519 (2003) 5910 522 609 1210 1250 2140 3660 8830 26100 31600
2019-10-13 09:45 7.20 13300 32000 (1999) 519 (2003) 5910 522 609 1210 1250 2140 3660 8830 26100 31600
2019-10-13 08:45 7.32 13700 32000 (1999) 519 (2003) 5910 522 609 1210 1250 2140 3660 8830 26100 31600
2019-10-13 07:45 7.42 14000 32000 (1999) 519 (2003) 5910 522 609 1210 1250 2140 3660 8830 26100 31600
2019-10-13 06:45 7.53 14400 32000 (1999) 519 (2003) 5910 522 609 1210 1250 2140 3660 8830 26100 31600
2019-10-13 05:45 7.63 14700 32000 (1999) 519 (2003) 5910 522 609 1210 1250 2140 3660 8830 26100 31600
2019-10-13 04:45 7.73 15100 32000 (1999) 519 (2003) 5910 522 609 1210 1250 2140 3660 8830 26100 31600
2019-10-13 03:45 7.83 15400 32000 (1999) 519 (2003) 5910 522 609 1210 1250 2140 3660 8830 26100 31600
2019-10-13 02:45 7.91 15700 32000 (1999) 519 (2003) 5910 522 609 1210 1250 2140 3660 8830 26100 31600
2019-10-13 01:45 8.01 16000 32000 (1999) 519 (2003) 5910 522 609 1210 1250 2140 3660 8830 26100 31600
2019-10-13 00:45 8.12 16400 32000 (1999) 519 (2003) 5910 522 609 1210 1250 2140 3660 8830 26100 31600
2019-10-12 23:45 8.26 16800 33300 (1999) 524 (2003) 6680 534 650 1190 1340 3240 5610 11200 26600 32700
2019-10-12 22:45 8.42 17400 33300 (1999) 524 (2003) 6680 534 650 1190 1340 3240 5610 11200 26600 32700
2019-10-12 21:45 8.62 18100 33300 (1999) 524 (2003) 6680 534 650 1190 1340 3240 5610 11200 26600 32700
2019-10-12 20:45 8.84 18900 33300 (1999) 524 (2003) 6680 534 650 1190 1340 3240 5610 11200 26600 32700
2019-10-12 19:45 9.08 19700 33300 (1999) 524 (2003) 6680 534 650 1190 1340 3240 5610 11200 26600 32700
2019-10-12 18:45 9.34 20600 33300 (1999) 524 (2003) 6680 534 650 1190 1340 3240 5610 11200 26600 32700
2019-10-12 17:45 9.62 21600 33300 (1999) 524 (2003) 6680 534 650 1190 1340 3240 5610 11200 26600 32700
2019-10-12 16:45 9.93 22800 33300 (1999) 524 (2003) 6680 534 650 1190 1340 3240 5610 11200 26600 32700
2019-10-12 15:45 10.24 24000 33300 (1999) 524 (2003) 6680 534 650 1190 1340 3240 5610 11200 26600 32700
2019-10-12 14:45 10.56 25100 33300 (1999) 524 (2003) 6680 534 650 1190 1340 3240 5610 11200 26600 32700
2019-10-12 13:45 10.94 26600 33300 (1999) 524 (2003) 6680 534 650 1190 1340 3240 5610 11200 26600 32700
2019-10-12 12:45 11.30 27900 33300 (1999) 524 (2003) 6680 534 650 1190 1340 3240 5610 11200 26600 32700
2019-10-12 11:45 11.66 29200 33300 (1999) 524 (2003) 6680 534 650 1190 1340 3240 5610 11200 26600 32700
2019-10-12 10:45 12.00 30300 33300 (1999) 524 (2003) 6680 534 650 1190 1340 3240 5610 11200 26600 32700
2019-10-12 09:45 12.33 31500 33300 (1999) 524 (2003) 6680 534 650 1190 1340 3240 5610 11200 26600 32700
2019-10-12 08:45 12.72 32900 33300 (1999) 524 (2003) 6680 534 650 1190 1340 3240 5610 11200 26600 32700
2019-10-12 07:45 13.02 34000 33300 (1999) 524 (2003) 6680 534 650 1190 1340 3240 5610 11200 26600 32700
2019-10-12 06:45 13.29 35000 33300 (1999) 524 (2003) 6680 534 650 1190 1340 3240 5610 11200 26600 32700
2019-10-12 05:45 13.49 35800 33300 (1999) 524 (2003) 6680 534 650 1190 1340 3240 5610 11200 26600 32700
2019-10-12 04:45 13.64 36400 33300 (1999) 524 (2003) 6680 534 650 1190 1340 3240 5610 11200 26600 32700
2019-10-12 03:45 13.70 36600 33300 (1999) 524 (2003) 6680 534 650 1190 1340 3240 5610 11200 26600 32700
2019-10-12 02:45 13.66 36500 33300 (1999) 524 (2003) 6680 534 650 1190 1340 3240 5610 11200 26600 32700
2019-10-12 01:45 13.57 36100 33300 (1999) 524 (2003) 6680 534 650 1190 1340 3240 5610 11200 26600 32700
2019-10-12 00:45 13.44 35600 33300 (1999) 524 (2003) 6680 534 650 1190 1340 3240 5610 11200 26600 32700
2019-10-11 23:45 13.34 35200 36500 (1999) 520 (2003) 7250 564 827 1040 1190 2530 9880 14600 29000 35600
2019-10-11 22:45 13.23 34800 36500 (1999) 520 (2003) 7250 564 827 1040 1190 2530 9880 14600 29000 35600
2019-10-11 21:45 13.15 34500 36500 (1999) 520 (2003) 7250 564 827 1040 1190 2530 9880 14600 29000 35600
2019-10-11 20:45 13.05 34100 36500 (1999) 520 (2003) 7250 564 827 1040 1190 2530 9880 14600 29000 35600
2019-10-11 19:45 13.04 34100 36500 (1999) 520 (2003) 7250 564 827 1040 1190 2530 9880 14600 29000 35600
2019-10-11 18:45 13.02 34000 36500 (1999) 520 (2003) 7250 564 827 1040 1190 2530 9880 14600 29000 35600
2019-10-11 17:45 12.99 33900 36500 (1999) 520 (2003) 7250 564 827 1040 1190 2530 9880 14600 29000 35600
2019-10-11 16:45 13.10 34300 36500 (1999) 520 (2003) 7250 564 827 1040 1190 2530 9880 14600 29000 35600
2019-10-11 15:45 13.21 34700 36500 (1999) 520 (2003) 7250 564 827 1040 1190 2530 9880 14600 29000 35600
2019-10-11 14:45 13.31 35100 36500 (1999) 520 (2003) 7250 564 827 1040 1190 2530 9880 14600 29000 35600
2019-10-11 13:45 13.42 35500 36500 (1999) 520 (2003) 7250 564 827 1040 1190 2530 9880 14600 29000 35600
2019-10-11 12:45 13.62 36300 36500 (1999) 520 (2003) 7250 564 827 1040 1190 2530 9880 14600 29000 35600
2019-10-11 11:45 13.75 36800 36500 (1999) 520 (2003) 7250 564 827 1040 1190 2530 9880 14600 29000 35600
2019-10-11 10:45 13.88 37300 36500 (1999) 520 (2003) 7250 564 827 1040 1190 2530 9880 14600 29000 35600
2019-10-11 09:45 14.00 37800 36500 (1999) 520 (2003) 7250 564 827 1040 1190 2530 9880 14600 29000 35600
2019-10-11 08:45 14.10 38100 36500 (1999) 520 (2003) 7250 564 827 1040 1190 2530 9880 14600 29000 35600
2019-10-11 07:45 14.13 38300 36500 (1999) 520 (2003) 7250 564 827 1040 1190 2530 9880 14600 29000 35600
2019-10-11 06:45 14.14 38300 36500 (1999) 520 (2003) 7250 564 827 1040 1190 2530 9880 14600 29000 35600
2019-10-11 05:45 14.00 37800 36500 (1999) 520 (2003) 7250 564 827 1040 1190 2530 9880 14600 29000 35600
2019-10-11 04:45 13.99 37700 36500 (1999) 520 (2003) 7250 564 827 1040 1190 2530 9880 14600 29000 35600
2019-10-11 03:45 13.88 37300 36500 (1999) 520 (2003) 7250 564 827 1040 1190 2530 9880 14600 29000 35600
2019-10-11 02:45 13.67 36500 36500 (1999) 520 (2003) 7250 564 827 1040 1190 2530 9880 14600 29000 35600
2019-10-11 01:45 13.54 36000 36500 (1999) 520 (2003) 7250 564 827 1040 1190 2530 9880 14600 29000 35600
2019-10-11 00:45 13.11 34400 36500 (1999) 520 (2003) 7250 564 827 1040 1190 2530 9880 14600 29000 35600
2019-10-10 23:45 12.80 33200 41000 (1999) 517 (2003) 7210 559 855 1190 1270 2190 10500 12900 31200 40600
2019-10-10 22:45 12.23 31100 41000 (1999) 517 (2003) 7210 559 855 1190 1270 2190 10500 12900 31200 40600
2019-10-10 21:45 11.56 28900 41000 (1999) 517 (2003) 7210 559 855 1190 1270 2190 10500 12900 31200 40600
2019-10-10 20:45 10.94 26600 41000 (1999) 517 (2003) 7210 559 855 1190 1270 2190 10500 12900 31200 40600
2019-10-10 19:45 10.90 26400 41000 (1999) 517 (2003) 7210 559 855 1190 1270 2190 10500 12900 31200 40600
2019-10-10 18:45 10.89 26400 41000 (1999) 517 (2003) 7210 559 855 1190 1270 2190 10500 12900 31200 40600
2019-10-10 17:45 10.86 26300 41000 (1999) 517 (2003) 7210 559 855 1190 1270 2190 10500 12900 31200 40600
2019-10-10 16:45 10.82 26100 41000 (1999) 517 (2003) 7210 559 855 1190 1270 2190 10500 12900 31200 40600
2019-10-10 15:45 10.77 26000 41000 (1999) 517 (2003) 7210 559 855 1190 1270 2190 10500 12900 31200 40600
2019-10-10 14:45 10.78 26000 41000 (1999) 517 (2003) 7210 559 855 1190 1270 2190 10500 12900 31200 40600
2019-10-10 13:45 10.82 26100 41000 (1999) 517 (2003) 7210 559 855 1190 1270 2190 10500 12900 31200 40600
2019-10-10 12:45 10.89 26400 41000 (1999) 517 (2003) 7210 559 855 1190 1270 2190 10500 12900 31200 40600
2019-10-10 11:45 10.86 26300 41000 (1999) 517 (2003) 7210 559 855 1190 1270 2190 10500 12900 31200 40600
2019-10-10 10:45 10.86 26300 41000 (1999) 517 (2003) 7210 559 855 1190 1270 2190 10500 12900 31200 40600
2019-10-10 09:45 10.87 26300 41000 (1999) 517 (2003) 7210 559 855 1190 1270 2190 10500 12900 31200 40600
2019-10-10 08:45 10.91 26500 41000 (1999) 517 (2003) 7210 559 855 1190 1270 2190 10500 12900 31200 40600
2019-10-10 07:45 10.98 26700 41000 (1999) 517 (2003) 7210 559 855 1190 1270 2190 10500 12900 31200 40600
2019-10-10 06:45 11.08 27100 41000 (1999) 517 (2003) 7210 559 855 1190 1270 2190 10500 12900 31200 40600
2019-10-10 05:45 11.13 27300 41000 (1999) 517 (2003) 7210 559 855 1190 1270 2190 10500 12900 31200 40600
2019-10-10 04:45 11.10 27200 41000 (1999) 517 (2003) 7210 559 855 1190 1270 2190 10500 12900 31200 40600
2019-10-10 03:45 11.01 26800 41000 (1999) 517 (2003) 7210 559 855 1190 1270 2190 10500 12900 31200 40600
2019-10-10 02:45 10.84 26200 41000 (1999) 517 (2003) 7210 559 855 1190 1270 2190 10500 12900 31200 40600
2019-10-10 01:45 10.65 25500 41000 (1999) 517 (2003) 7210 559 855 1190 1270 2190 10500 12900 31200 40600
2019-10-10 00:45 10.42 24700 41000 (1999) 517 (2003) 7210 559 855 1190 1270 2190 10500 12900 31200 40600
2019-10-09 23:45 10.14 23600 45900 (2010) 494 (2003) 7190 501 602 1020 1200 2560 6030 7360 35600 45800
2019-10-09 22:45 9.88 22600 45900 (2010) 494 (2003) 7190 501 602 1020 1200 2560 6030 7360 35600 45800
2019-10-09 21:45 9.57 21500 45900 (2010) 494 (2003) 7190 501 602 1020 1200 2560 6030 7360 35600 45800
2019-10-09 20:45 9.24 20300 45900 (2010) 494 (2003) 7190 501 602 1020 1200 2560 6030 7360 35600 45800
2019-10-09 19:45 8.89 19000 45900 (2010) 494 (2003) 7190 501 602 1020 1200 2560 6030 7360 35600 45800
2019-10-09 18:45 8.56 17900 45900 (2010) 494 (2003) 7190 501 602 1020 1200 2560 6030 7360 35600 45800
2019-10-09 17:45 8.25 16800 45900 (2010) 494 (2003) 7190 501 602 1020 1200 2560 6030 7360 35600 45800
2019-10-09 16:45 8.03 16000 45900 (2010) 494 (2003) 7190 501 602 1020 1200 2560 6030 7360 35600 45800
2019-10-09 15:45 7.90 15600 45900 (2010) 494 (2003) 7190 501 602 1020 1200 2560 6030 7360 35600 45800
2019-10-09 14:45 7.88 15600 45900 (2010) 494 (2003) 7190 501 602 1020 1200 2560 6030 7360 35600 45800
2019-10-09 13:45 7.94 15700 45900 (2010) 494 (2003) 7190 501 602 1020 1200 2560 6030 7360 35600 45800
2019-10-09 12:45 8.04 16100 45900 (2010) 494 (2003) 7190 501 602 1020 1200 2560 6030 7360 35600 45800
2019-10-09 11:45 8.14 16400 45900 (2010) 494 (2003) 7190 501 602 1020 1200 2560 6030 7360 35600 45800
2019-10-09 10:45 8.23 16700 45900 (2010) 494 (2003) 7190 501 602 1020 1200 2560 6030 7360 35600 45800
2019-10-09 09:45 8.32 17000 45900 (2010) 494 (2003) 7190 501 602 1020 1200 2560 6030 7360 35600 45800
2019-10-09 08:45 8.40 17300 45900 (2010) 494 (2003) 7190 501 602 1020 1200 2560 6030 7360 35600 45800
2019-10-09 07:45 8.47 17600 45900 (2010) 494 (2003) 7190 501 602 1020 1200 2560 6030 7360 35600 45800
2019-10-09 06:45 8.56 17900 45900 (2010) 494 (2003) 7190 501 602 1020 1200 2560 6030 7360 35600 45800
2019-10-09 05:45 8.61 18000 45900 (2010) 494 (2003) 7190 501 602 1020 1200 2560 6030 7360 35600 45800
2019-10-09 04:45 8.65 18200 45900 (2010) 494 (2003) 7190 501 602 1020 1200 2560 6030 7360 35600 45800
2019-10-09 03:45 8.67 18300 45900 (2010) 494 (2003) 7190 501 602 1020 1200 2560 6030 7360 35600 45800
2019-10-09 02:45 8.65 18200 45900 (2010) 494 (2003) 7190 501 602 1020 1200 2560 6030 7360 35600 45800
2019-10-09 01:45 8.60 18000 45900 (2010) 494 (2003) 7190 501 602 1020 1200 2560 6030 7360 35600 45800
2019-10-09 00:45 8.51 17700 45900 (2010) 494 (2003) 7190 501 602 1020 1200 2560 6030 7360 35600 45800
2019-10-08 23:45 8.44 17400 48400 (1999) 506 (2003) 6970 514 638 1080 1160 2230 8120 11800 23100 45100
2019-10-08 22:45 8.36 17200 48400 (1999) 506 (2003) 6970 514 638 1080 1160 2230 8120 11800 23100 45100
2019-10-08 21:45 8.34 17100 48400 (1999) 506 (2003) 6970 514 638 1080 1160 2230 8120 11800 23100 45100
2019-10-08 20:45 8.34 17100 48400 (1999) 506 (2003) 6970 514 638 1080 1160 2230 8120 11800 23100 45100
2019-10-08 19:45 8.39 17300 48400 (1999) 506 (2003) 6970 514 638 1080 1160 2230 8120 11800 23100 45100
2019-10-08 18:45 8.46 17500 48400 (1999) 506 (2003) 6970 514 638 1080 1160 2230 8120 11800 23100 45100
2019-10-08 17:45 8.58 17900 48400 (1999) 506 (2003) 6970 514 638 1080 1160 2230 8120 11800 23100 45100
2019-10-08 16:45 8.71 18400 48400 (1999) 506 (2003) 6970 514 638 1080 1160 2230 8120 11800 23100 45100
2019-10-08 15:45 8.87 19000 48400 (1999) 506 (2003) 6970 514 638 1080 1160 2230 8120 11800 23100 45100
2019-10-08 14:45 9.04 19500 48400 (1999) 506 (2003) 6970 514 638 1080 1160 2230 8120 11800 23100 45100
2019-10-08 13:45 9.23 20200 48400 (1999) 506 (2003) 6970 514 638 1080 1160 2230 8120 11800 23100 45100
2019-10-08 12:45 9.41 20900 48400 (1999) 506 (2003) 6970 514 638 1080 1160 2230 8120 11800 23100 45100
2019-10-08 11:45 9.61 21600 48400 (1999) 506 (2003) 6970 514 638 1080 1160 2230 8120 11800 23100 45100
2019-10-08 10:45 9.80 22300 48400 (1999) 506 (2003) 6970 514 638 1080 1160 2230 8120 11800 23100 45100
2019-10-08 09:45 9.98 23000 48400 (1999) 506 (2003) 6970 514 638 1080 1160 2230 8120 11800 23100 45100
2019-10-08 08:45 10.15 23700 48400 (1999) 506 (2003) 6970 514 638 1080 1160 2230 8120 11800 23100 45100
2019-10-08 07:45 10.32 24300 48400 (1999) 506 (2003) 6970 514 638 1080 1160 2230 8120 11800 23100 45100
2019-10-08 06:45 10.49 24900 48400 (1999) 506 (2003) 6970 514 638 1080 1160 2230 8120 11800 23100 45100
2019-10-08 05:45 10.62 25400 48400 (1999) 506 (2003) 6970 514 638 1080 1160 2230 8120 11800 23100 45100
2019-10-08 04:45 10.67 25600 48400 (1999) 506 (2003) 6970 514 638 1080 1160 2230 8120 11800 23100 45100
2019-10-08 03:45 10.68 25600 48400 (1999) 506 (2003) 6970 514 638 1080 1160 2230 8120 11800 23100 45100
2019-10-08 02:45 10.61 25300 48400 (1999) 506 (2003) 6970 514 638 1080 1160 2230 8120 11800 23100 45100
2019-10-08 01:45 10.44 24700 48400 (1999) 506 (2003) 6970 514 638 1080 1160 2230 8120 11800 23100 45100
2019-10-08 00:45 10.26 24000 48400 (1999) 506 (2003) 6970 514 638 1080 1160 2230 8120 11800 23100 45100
2019-10-07 23:45 10.03 23200 54200 (1999) 543 (2003) 6580 555 656 909 981 1790 7740 8900 17200 49000
2019-10-07 22:45 9.80 22300 54200 (1999) 543 (2003) 6580 555 656 909 981 1790 7740 8900 17200 49000
2019-10-07 21:45 9.58 21500 54200 (1999) 543 (2003) 6580 555 656 909 981 1790 7740 8900 17200 49000
2019-10-07 20:45 9.33 20600 54200 (1999) 543 (2003) 6580 555 656 909 981 1790 7740 8900 17200 49000
2019-10-07 19:45 8.99 19400 54200 (1999) 543 (2003) 6580 555 656 909 981 1790 7740 8900 17200 49000
2019-10-07 18:45 8.57 17900 54200 (1999) 543 (2003) 6580 555 656 909 981 1790 7740 8900 17200 49000
2019-10-07 17:45 8.11 16300 54200 (1999) 543 (2003) 6580 555 656 909 981 1790 7740 8900 17200 49000
2019-10-07 16:45 7.72 15000 54200 (1999) 543 (2003) 6580 555 656 909 981 1790 7740 8900 17200 49000
2019-10-07 15:45 7.48 14200 54200 (1999) 543 (2003) 6580 555 656 909 981 1790 7740 8900 17200 49000
2019-10-07 14:45 7.40 13900 54200 (1999) 543 (2003) 6580 555 656 909 981 1790 7740 8900 17200 49000
2019-10-07 13:45 7.40 13900 54200 (1999) 543 (2003) 6580 555 656 909 981 1790 7740 8900 17200 49000
2019-10-07 12:45 7.42 14000 54200 (1999) 543 (2003) 6580 555 656 909 981 1790 7740 8900 17200 49000
2019-10-07 11:45 7.42 14000 54200 (1999) 543 (2003) 6580 555 656 909 981 1790 7740 8900 17200 49000
2019-10-07 10:45 7.42 14000 54200 (1999) 543 (2003) 6580 555 656 909 981 1790 7740 8900 17200 49000
2019-10-07 09:45 7.42 14000 54200 (1999) 543 (2003) 6580 555 656 909 981 1790 7740 8900 17200 49000
2019-10-07 08:45 7.42 14000 54200 (1999) 543 (2003) 6580 555 656 909 981 1790 7740 8900 17200 49000
2019-10-07 07:45 7.42 14000 54200 (1999) 543 (2003) 6580 555 656 909 981 1790 7740 8900 17200 49000
2019-10-07 06:45 7.43 14000 54200 (1999) 543 (2003) 6580 555 656 909 981 1790 7740 8900 17200 49000
2019-10-07 05:45 7.44 14100 54200 (1999) 543 (2003) 6580 555 656 909 981 1790 7740 8900 17200 49000
2019-10-07 04:45 7.45 14100 54200 (1999) 543 (2003) 6580 555 656 909 981 1790 7740 8900 17200 49000
2019-10-07 03:45 7.45 14100 54200 (1999) 543 (2003) 6580 555 656 909 981 1790 7740 8900 17200 49000
2019-10-07 02:45 7.45 14100 54200 (1999) 543 (2003) 6580 555 656 909 981 1790 7740 8900 17200 49000
2019-10-07 01:45 7.46 14100 54200 (1999) 543 (2003) 6580 555 656 909 981 1790 7740 8900 17200 49000
2019-10-07 00:45 7.47 14200 54200 (1999) 543 (2003) 6580 555 656 909 981 1790 7740 8900 17200 49000

A total of 172 rows are displayed for years 1997 through 2019.

Trips for Osage River (Missouri), Saint Thomas (06926510)

DateStartEndDistanceConditionDischargeHeightFishingDetails

A total of 0 rows are displayed.

Condition Descriptions

Fishing Conditions

Fish Species

Notes

Classic Trip List

The classic River Trips application is still available for use. It is updated with the new system using a data retrofit. It is no longer maintained. The original River Trips application is no longer updated (as of 1 Dec 2016) but can be checked for errors or for the condition of the data before it was converted to the new system.